sensor_id;sensor_type;location;lat;lon;timestamp;temperature;humidity
15341;DHT22;7770;52.158;5.372;2023-04-25T00:02:10;5.50;99.90
15341;DHT22;7770;52.158;5.372;2023-04-25T00:04:56;5.50;99.90
15341;DHT22;7770;52.158;5.372;2023-04-25T00:07:43;5.50;99.90
15341;DHT22;7770;52.158;5.372;2023-04-25T00:10:29;5.50;99.90
15341;DHT22;7770;52.158;5.372;2023-04-25T00:13:15;5.70;99.90
15341;DHT22;7770;52.158;5.372;2023-04-25T00:16:03;5.70;99.90
15341;DHT22;7770;52.158;5.372;2023-04-25T00:18:49;5.90;99.90
15341;DHT22;7770;52.158;5.372;2023-04-25T00:21:39;5.90;99.90
15341;DHT22;7770;52.158;5.372;2023-04-25T00:24:28;6.00;99.90
15341;DHT22;7770;52.158;5.372;2023-04-25T00:27:14;6.00;99.90
15341;DHT22;7770;52.158;5.372;2023-04-25T00:30:00;6.00;99.90
15341;DHT22;7770;52.158;5.372;2023-04-25T00:32:46;6.00;99.90
15341;DHT22;7770;52.158;5.372;2023-04-25T00:35:32;6.00;99.90
15341;DHT22;7770;52.158;5.372;2023-04-25T00:38:19;6.00;99.90
15341;DHT22;7770;52.158;5.372;2023-04-25T00:41:07;6.00;99.90
15341;DHT22;7770;52.158;5.372;2023-04-25T00:43:54;6.00;99.90
15341;DHT22;7770;52.158;5.372;2023-04-25T00:46:40;6.00;99.90
15341;DHT22;7770;52.158;5.372;2023-04-25T00:49:27;6.00;99.90
15341;DHT22;7770;52.158;5.372;2023-04-25T00:52:13;6.00;99.90
15341;DHT22;7770;52.158;5.372;2023-04-25T00:54:59;6.00;99.90
15341;DHT22;7770;52.158;5.372;2023-04-25T00:57:46;5.90;99.90
15341;DHT22;7770;52.158;5.372;2023-04-25T01:00:32;5.90;99.90
15341;DHT22;7770;52.158;5.372;2023-04-25T01:03:19;5.90;99.90
15341;DHT22;7770;52.158;5.372;2023-04-25T01:06:09;5.80;99.90
15341;DHT22;7770;52.158;5.372;2023-04-25T01:08:56;5.70;99.90
15341;DHT22;7770;52.158;5.372;2023-04-25T01:11:42;5.70;99.90
15341;DHT22;7770;52.158;5.372;2023-04-25T01:14:28;5.60;99.90
15341;DHT22;7770;52.158;5.372;2023-04-25T01:17:16;5.60;99.90
15341;DHT22;7770;52.158;5.372;2023-04-25T01:20:06;5.40;99.90
15341;DHT22;7770;52.158;5.372;2023-04-25T01:22:55;5.40;99.90
15341;DHT22;7770;52.158;5.372;2023-04-25T01:25:41;5.20;99.90
15341;DHT22;7770;52.158;5.372;2023-04-25T01:28:28;5.20;99.90
15341;DHT22;7770;52.158;5.372;2023-04-25T01:31:15;5.10;99.90
15341;DHT22;7770;52.158;5.372;2023-04-25T01:34:01;5.00;99.90
15341;DHT22;7770;52.158;5.372;2023-04-25T01:36:50;4.90;99.90
15341;DHT22;7770;52.158;5.372;2023-04-25T01:39:36;4.80;99.90
15341;DHT22;7770;52.158;5.372;2023-04-25T01:42:22;4.80;99.90
15341;DHT22;7770;52.158;5.372;2023-04-25T01:45:09;4.80;99.90
15341;DHT22;7770;52.158;5.372;2023-04-25T01:47:56;4.70;99.90
15341;DHT22;7770;52.158;5.372;2023-04-25T01:50:44;4.60;99.90
15341;DHT22;7770;52.158;5.372;2023-04-25T01:53:31;4.60;99.90
15341;DHT22;7770;52.158;5.372;2023-04-25T01:56:18;4.50;99.90
15341;DHT22;7770;52.158;5.372;2023-04-25T01:59:05;4.50;99.90
15341;DHT22;7770;52.158;5.372;2023-04-25T02:01:51;4.40;99.90
15341;DHT22;7770;52.158;5.372;2023-04-25T02:04:37;4.40;99.90
15341;DHT22;7770;52.158;5.372;2023-04-25T02:07:23;4.30;99.90
15341;DHT22;7770;52.158;5.372;2023-04-25T02:10:09;4.30;99.90
15341;DHT22;7770;52.158;5.372;2023-04-25T02:12:57;4.30;99.90
15341;DHT22;7770;52.158;5.372;2023-04-25T02:15:43;4.20;99.90
15341;DHT22;7770;52.158;5.372;2023-04-25T02:18:29;4.20;99.90
15341;DHT22;7770;52.158;5.372;2023-04-25T02:21:16;4.20;99.90
15341;DHT22;7770;52.158;5.372;2023-04-25T02:24:03;4.10;99.90
15341;DHT22;7770;52.158;5.372;2023-04-25T02:26:49;4.10;99.90
15341;DHT22;7770;52.158;5.372;2023-04-25T02:29:35;4.00;99.90
15341;DHT22;7770;52.158;5.372;2023-04-25T02:32:21;4.00;99.90
15341;DHT22;7770;52.158;5.372;2023-04-25T02:35:07;4.00;99.90
15341;DHT22;7770;52.158;5.372;2023-04-25T02:37:53;4.00;99.90
15341;DHT22;7770;52.158;5.372;2023-04-25T02:40:39;3.90;99.90
15341;DHT22;7770;52.158;5.372;2023-04-25T02:43:26;4.00;99.90
15341;DHT22;7770;52.158;5.372;2023-04-25T02:46:12;4.00;99.90
15341;DHT22;7770;52.158;5.372;2023-04-25T02:48:58;4.10;99.90
15341;DHT22;7770;52.158;5.372;2023-04-25T02:51:44;4.10;99.90
15341;DHT22;7770;52.158;5.372;2023-04-25T02:54:30;4.20;99.90
15341;DHT22;7770;52.158;5.372;2023-04-25T02:57:16;4.20;99.90
15341;DHT22;7770;52.158;5.372;2023-04-25T03:00:02;4.30;99.90
15341;DHT22;7770;52.158;5.372;2023-04-25T03:02:50;4.40;99.90
15341;DHT22;7770;52.158;5.372;2023-04-25T03:05:36;4.50;99.90
15341;DHT22;7770;52.158;5.372;2023-04-25T03:08:22;4.50;99.90
15341;DHT22;7770;52.158;5.372;2023-04-25T03:11:08;4.40;99.90
15341;DHT22;7770;52.158;5.372;2023-04-25T03:13:54;4.30;99.90
15341;DHT22;7770;52.158;5.372;2023-04-25T03:16:40;4.30;99.90
15341;DHT22;7770;52.158;5.372;2023-04-25T03:19:26;4.20;99.90
15341;DHT22;7770;52.158;5.372;2023-04-25T03:22:12;4.20;99.90
15341;DHT22;7770;52.158;5.372;2023-04-25T03:24:58;4.20;99.90
15341;DHT22;7770;52.158;5.372;2023-04-25T03:27:44;4.30;99.90
15341;DHT22;7770;52.158;5.372;2023-04-25T03:30:30;4.20;99.90
15341;DHT22;7770;52.158;5.372;2023-04-25T03:33:16;4.20;99.90
15341;DHT22;7770;52.158;5.372;2023-04-25T03:36:03;4.30;99.90
15341;DHT22;7770;52.158;5.372;2023-04-25T03:38:49;4.30;99.90
15341;DHT22;7770;52.158;5.372;2023-04-25T03:41:35;4.40;99.90
15341;DHT22;7770;52.158;5.372;2023-04-25T03:44:21;4.50;99.90
15341;DHT22;7770;52.158;5.372;2023-04-25T03:47:07;4.60;99.90
15341;DHT22;7770;52.158;5.372;2023-04-25T03:49:53;4.70;99.90
15341;DHT22;7770;52.158;5.372;2023-04-25T03:52:39;4.70;99.90
15341;DHT22;7770;52.158;5.372;2023-04-25T03:55:25;4.80;99.90
15341;DHT22;7770;52.158;5.372;2023-04-25T03:58:11;4.90;99.90
15341;DHT22;7770;52.158;5.372;2023-04-25T04:00:57;4.90;99.90
15341;DHT22;7770;52.158;5.372;2023-04-25T04:03:43;5.00;99.90
15341;DHT22;7770;52.158;5.372;2023-04-25T04:06:29;5.00;99.90
15341;DHT22;7770;52.158;5.372;2023-04-25T04:09:15;5.00;99.90
15341;DHT22;7770;52.158;5.372;2023-04-25T04:12:01;5.00;99.90
15341;DHT22;7770;52.158;5.372;2023-04-25T04:14:48;5.00;99.90
15341;DHT22;7770;52.158;5.372;2023-04-25T04:17:34;5.00;99.90
15341;DHT22;7770;52.158;5.372;2023-04-25T04:20:20;5.00;99.90
15341;DHT22;7770;52.158;5.372;2023-04-25T04:23:06;5.00;99.90
15341;DHT22;7770;52.158;5.372;2023-04-25T04:25:52;5.10;99.90
15341;DHT22;7770;52.158;5.372;2023-04-25T04:28:39;5.10;99.90
15341;DHT22;7770;52.158;5.372;2023-04-25T04:31:25;5.10;99.90
15341;DHT22;7770;52.158;5.372;2023-04-25T04:34:11;5.10;99.90
15341;DHT22;7770;52.158;5.372;2023-04-25T04:36:58;5.10;99.90
15341;DHT22;7770;52.158;5.372;2023-04-25T04:39:44;5.10;99.90
15341;DHT22;7770;52.158;5.372;2023-04-25T04:42:30;5.20;99.90
15341;DHT22;7770;52.158;5.372;2023-04-25T04:45:17;5.30;99.90
15341;DHT22;7770;52.158;5.372;2023-04-25T04:48:05;5.30;99.90
15341;DHT22;7770;52.158;5.372;2023-04-25T04:50:52;5.30;99.90
15341;DHT22;7770;52.158;5.372;2023-04-25T04:53:37;5.40;99.90
15341;DHT22;7770;52.158;5.372;2023-04-25T04:56:24;5.40;99.90
15341;DHT22;7770;52.158;5.372;2023-04-25T04:59:11;5.40;99.90
15341;DHT22;7770;52.158;5.372;2023-04-25T05:01:57;5.40;99.90
15341;DHT22;7770;52.158;5.372;2023-04-25T05:04:43;5.50;99.90
15341;DHT22;7770;52.158;5.372;2023-04-25T05:07:29;5.50;99.90
15341;DHT22;7770;52.158;5.372;2023-04-25T05:10:15;5.60;99.90
15341;DHT22;7770;52.158;5.372;2023-04-25T05:13:02;5.60;99.90
15341;DHT22;7770;52.158;5.372;2023-04-25T05:15:48;5.50;99.90
15341;DHT22;7770;52.158;5.372;2023-04-25T05:18:34;5.60;99.90
15341;DHT22;7770;52.158;5.372;2023-04-25T05:21:20;5.60;99.90
15341;DHT22;7770;52.158;5.372;2023-04-25T05:24:07;5.70;99.90
15341;DHT22;7770;52.158;5.372;2023-04-25T05:26:53;5.80;99.90
15341;DHT22;7770;52.158;5.372;2023-04-25T05:29:39;5.80;99.90
15341;DHT22;7770;52.158;5.372;2023-04-25T05:32:25;5.80;99.90
15341;DHT22;7770;52.158;5.372;2023-04-25T05:35:11;6.00;99.90
15341;DHT22;7770;52.158;5.372;2023-04-25T05:37:57;6.00;99.90
15341;DHT22;7770;52.158;5.372;2023-04-25T05:40:43;6.00;99.90
15341;DHT22;7770;52.158;5.372;2023-04-25T05:43:29;6.10;99.90
15341;DHT22;7770;52.158;5.372;2023-04-25T05:46:15;6.20;99.90
15341;DHT22;7770;52.158;5.372;2023-04-25T05:49:05;6.20;99.90
15341;DHT22;7770;52.158;5.372;2023-04-25T05:51:51;6.30;99.90
15341;DHT22;7770;52.158;5.372;2023-04-25T05:54:37;6.50;99.90
15341;DHT22;7770;52.158;5.372;2023-04-25T05:57:24;6.60;99.90
15341;DHT22;7770;52.158;5.372;2023-04-25T06:00:12;6.70;99.90
15341;DHT22;7770;52.158;5.372;2023-04-25T06:03:00;6.90;99.90
15341;DHT22;7770;52.158;5.372;2023-04-25T06:05:46;7.10;99.90
15341;DHT22;7770;52.158;5.372;2023-04-25T06:08:32;7.20;99.90
15341;DHT22;7770;52.158;5.372;2023-04-25T06:11:18;7.30;99.90
15341;DHT22;7770;52.158;5.372;2023-04-25T06:14:05;7.50;99.90
15341;DHT22;7770;52.158;5.372;2023-04-25T06:16:52;7.90;99.90
15341;DHT22;7770;52.158;5.372;2023-04-25T06:19:38;8.40;99.90
15341;DHT22;7770;52.158;5.372;2023-04-25T06:22:24;8.70;99.90
15341;DHT22;7770;52.158;5.372;2023-04-25T06:25:10;8.70;99.90
15341;DHT22;7770;52.158;5.372;2023-04-25T06:27:56;8.80;99.90
15341;DHT22;7770;52.158;5.372;2023-04-25T06:30:42;8.70;99.90
15341;DHT22;7770;52.158;5.372;2023-04-25T06:33:28;8.70;99.90
15341;DHT22;7770;52.158;5.372;2023-04-25T06:36:14;8.70;99.90
15341;DHT22;7770;52.158;5.372;2023-04-25T06:39:00;8.60;99.90
15341;DHT22;7770;52.158;5.372;2023-04-25T06:41:46;8.70;99.90
15341;DHT22;7770;52.158;5.372;2023-04-25T06:44:32;8.80;99.90
15341;DHT22;7770;52.158;5.372;2023-04-25T06:47:18;8.80;99.90
15341;DHT22;7770;52.158;5.372;2023-04-25T06:50:04;8.90;99.90
15341;DHT22;7770;52.158;5.372;2023-04-25T06:52:51;9.00;99.90
15341;DHT22;7770;52.158;5.372;2023-04-25T06:55:37;9.10;99.90
15341;DHT22;7770;52.158;5.372;2023-04-25T06:58:23;9.10;99.90
15341;DHT22;7770;52.158;5.372;2023-04-25T07:01:09;9.20;99.90
15341;DHT22;7770;52.158;5.372;2023-04-25T07:03:56;9.40;99.90
15341;DHT22;7770;52.158;5.372;2023-04-25T07:06:41;9.50;99.90
15341;DHT22;7770;52.158;5.372;2023-04-25T07:09:28;9.50;99.90
15341;DHT22;7770;52.158;5.372;2023-04-25T07:12:14;9.40;99.90
15341;DHT22;7770;52.158;5.372;2023-04-25T07:15:00;9.40;99.90
15341;DHT22;7770;52.158;5.372;2023-04-25T07:17:51;9.30;99.90
15341;DHT22;7770;52.158;5.372;2023-04-25T07:20:37;9.30;99.90
15341;DHT22;7770;52.158;5.372;2023-04-25T07:23:23;10.10;99.90
15341;DHT22;7770;52.158;5.372;2023-04-25T07:26:09;11.30;99.90
15341;DHT22;7770;52.158;5.372;2023-04-25T07:28:55;11.60;99.90
15341;DHT22;7770;52.158;5.372;2023-04-25T07:31:41;11.70;99.90
15341;DHT22;7770;52.158;5.372;2023-04-25T07:34:27;11.50;99.90
15341;DHT22;7770;52.158;5.372;2023-04-25T07:37:13;11.40;99.90
15341;DHT22;7770;52.158;5.372;2023-04-25T07:39:59;11.50;99.90
15341;DHT22;7770;52.158;5.372;2023-04-25T07:42:45;11.40;99.90
15341;DHT22;7770;52.158;5.372;2023-04-25T07:45:31;11.20;99.90
15341;DHT22;7770;52.158;5.372;2023-04-25T07:48:18;11.10;99.90
15341;DHT22;7770;52.158;5.372;2023-04-25T07:51:04;10.90;99.90
15341;DHT22;7770;52.158;5.372;2023-04-25T07:53:50;10.80;99.90
15341;DHT22;7770;52.158;5.372;2023-04-25T07:56:36;10.90;99.90
15341;DHT22;7770;52.158;5.372;2023-04-25T07:59:22;11.10;99.90
15341;DHT22;7770;52.158;5.372;2023-04-25T08:02:08;11.80;99.90
15341;DHT22;7770;52.158;5.372;2023-04-25T08:04:54;12.80;99.90
15341;DHT22;7770;52.158;5.372;2023-04-25T08:07:41;13.10;99.90
15341;DHT22;7770;52.158;5.372;2023-04-25T08:10:27;12.70;99.90
15341;DHT22;7770;52.158;5.372;2023-04-25T08:13:13;12.60;99.90
15341;DHT22;7770;52.158;5.372;2023-04-25T08:15:59;13.50;99.90
15341;DHT22;7770;52.158;5.372;2023-04-25T08:18:45;13.60;97.80
15341;DHT22;7770;52.158;5.372;2023-04-25T08:21:31;12.30;99.90
15341;DHT22;7770;52.158;5.372;2023-04-25T08:24:18;11.10;99.90
15341;DHT22;7770;52.158;5.372;2023-04-25T08:27:04;10.40;99.90
15341;DHT22;7770;52.158;5.372;2023-04-25T08:29:50;9.90;99.90
15341;DHT22;7770;52.158;5.372;2023-04-25T08:32:36;9.80;99.90
15341;DHT22;7770;52.158;5.372;2023-04-25T08:35:24;9.70;99.90
15341;DHT22;7770;52.158;5.372;2023-04-25T08:38:10;9.80;99.90
15341;DHT22;7770;52.158;5.372;2023-04-25T08:40:56;10.00;99.90
15341;DHT22;7770;52.158;5.372;2023-04-25T08:43:43;10.40;99.90
15341;DHT22;7770;52.158;5.372;2023-04-25T08:46:30;10.60;99.90
15341;DHT22;7770;52.158;5.372;2023-04-25T08:49:19;12.00;99.90
15341;DHT22;7770;52.158;5.372;2023-04-25T08:52:07;13.90;99.20
15341;DHT22;7770;52.158;5.372;2023-04-25T08:54:57;16.40;96.00
15341;DHT22;7770;52.158;5.372;2023-04-25T08:57:43;17.70;93.10
15341;DHT22;7770;52.158;5.372;2023-04-25T09:00:30;18.20;92.40
15341;DHT22;7770;52.158;5.372;2023-04-25T09:03:17;19.20;91.20
15341;DHT22;7770;52.158;5.372;2023-04-25T09:06:03;19.50;90.40
15341;DHT22;7770;52.158;5.372;2023-04-25T09:08:50;20.00;90.00
15341;DHT22;7770;52.158;5.372;2023-04-25T09:11:37;19.80;88.20
15341;DHT22;7770;52.158;5.372;2023-04-25T09:14:23;19.70;87.90
15341;DHT22;7770;52.158;5.372;2023-04-25T09:17:11;18.60;90.60
15341;DHT22;7770;52.158;5.372;2023-04-25T09:20:11;17.30;92.40
15341;DHT22;7770;52.158;5.372;2023-04-25T09:23:02;15.50;93.30
15341;DHT22;7770;52.158;5.372;2023-04-25T09:25:51;14.40;95.50
15341;DHT22;7770;52.158;5.372;2023-04-25T09:28:38;13.70;96.10
15341;DHT22;7770;52.158;5.372;2023-04-25T09:31:24;13.70;97.00
15341;DHT22;7770;52.158;5.372;2023-04-25T09:34:10;14.10;96.70
15341;DHT22;7770;52.158;5.372;2023-04-25T09:37:01;14.30;95.60
15341;DHT22;7770;52.158;5.372;2023-04-25T09:39:58;13.30;96.30
15341;DHT22;7770;52.158;5.372;2023-04-25T09:42:46;12.70;99.10
15341;DHT22;7770;52.158;5.372;2023-04-25T09:45:31;11.50;99.90
15341;DHT22;7770;52.158;5.372;2023-04-25T09:48:28;10.90;99.90
15341;DHT22;7770;52.158;5.372;2023-04-25T09:51:14;10.80;99.90
15341;DHT22;7770;52.158;5.372;2023-04-25T09:54:00;10.70;99.90
15341;DHT22;7770;52.158;5.372;2023-04-25T09:56:48;11.00;99.90
15341;DHT22;7770;52.158;5.372;2023-04-25T09:59:44;11.40;99.90
15341;DHT22;7770;52.158;5.372;2023-04-25T10:02:32;12.00;99.90
15341;DHT22;7770;52.158;5.372;2023-04-25T10:05:19;12.90;99.90
15341;DHT22;7770;52.158;5.372;2023-04-25T10:08:06;14.10;99.10
15341;DHT22;7770;52.158;5.372;2023-04-25T10:10:53;15.60;95.70
15341;DHT22;7770;52.158;5.372;2023-04-25T10:13:39;17.60;93.00
15341;DHT22;7770;52.158;5.372;2023-04-25T10:16:26;17.80;90.90
15341;DHT22;7770;52.158;5.372;2023-04-25T10:19:13;17.10;92.20
15341;DHT22;7770;52.158;5.372;2023-04-25T10:25:18;17.50;91.10
15341;DHT22;7770;52.158;5.372;2023-04-25T10:28:05;17.70;90.20
15341;DHT22;7770;52.158;5.372;2023-04-25T10:31:04;17.30;90.80
15341;DHT22;7770;52.158;5.372;2023-04-25T10:33:53;17.30;91.10
15341;DHT22;7770;52.158;5.372;2023-04-25T10:36:40;17.50;90.90
15341;DHT22;7770;52.158;5.372;2023-04-25T10:39:27;17.60;90.80
15341;DHT22;7770;52.158;5.372;2023-04-25T10:42:13;18.00;90.70
15341;DHT22;7770;52.158;5.372;2023-04-25T10:45:05;18.20;88.80
15341;DHT22;7770;52.158;5.372;2023-04-25T10:47:51;19.90;88.40
15341;DHT22;7770;52.158;5.372;2023-04-25T10:50:38;21.00;84.90
15341;DHT22;7770;52.158;5.372;2023-04-25T10:53:25;21.30;82.70
15341;DHT22;7770;52.158;5.372;2023-04-25T10:56:20;20.10;87.20
15341;DHT22;7770;52.158;5.372;2023-04-25T10:59:19;18.80;89.10
15341;DHT22;7770;52.158;5.372;2023-04-25T11:02:11;17.40;90.60
15341;DHT22;7770;52.158;5.372;2023-04-25T11:04:59;15.70;92.50
15341;DHT22;7770;52.158;5.372;2023-04-25T11:07:53;14.10;95.60
15341;DHT22;7770;52.158;5.372;2023-04-25T11:10:43;12.50;98.90
15341;DHT22;7770;52.158;5.372;2023-04-25T11:13:29;11.40;99.90
15341;DHT22;7770;52.158;5.372;2023-04-25T11:16:16;10.80;99.90
15341;DHT22;7770;52.158;5.372;2023-04-25T11:19:03;10.50;99.90
15341;DHT22;7770;52.158;5.372;2023-04-25T11:21:49;10.30;99.90
15341;DHT22;7770;52.158;5.372;2023-04-25T11:24:35;10.20;99.90
15341;DHT22;7770;52.158;5.372;2023-04-25T11:27:22;10.00;99.90
15341;DHT22;7770;52.158;5.372;2023-04-25T11:30:14;9.90;99.90
15341;DHT22;7770;52.158;5.372;2023-04-25T11:33:01;9.80;99.90
15341;DHT22;7770;52.158;5.372;2023-04-25T11:35:49;10.10;99.90
15341;DHT22;7770;52.158;5.372;2023-04-25T11:38:35;10.30;99.90
15341;DHT22;7770;52.158;5.372;2023-04-25T11:41:21;10.40;99.90
15341;DHT22;7770;52.158;5.372;2023-04-25T11:44:07;10.80;99.90
15341;DHT22;7770;52.158;5.372;2023-04-25T11:46:53;11.50;99.90
15341;DHT22;7770;52.158;5.372;2023-04-25T11:49:40;12.30;99.90
15341;DHT22;7770;52.158;5.372;2023-04-25T11:52:42;14.10;99.90
15341;DHT22;7770;52.158;5.372;2023-04-25T11:55:30;15.70;97.30
15341;DHT22;7770;52.158;5.372;2023-04-25T11:58:16;15.70;94.80
15341;DHT22;7770;52.158;5.372;2023-04-25T12:01:02;15.70;94.40
15341;DHT22;7770;52.158;5.372;2023-04-25T12:03:48;15.70;93.80
15341;DHT22;7770;52.158;5.372;2023-04-25T12:06:37;15.50;94.50
15341;DHT22;7770;52.158;5.372;2023-04-25T12:09:33;14.70;94.30
15341;DHT22;7770;52.158;5.372;2023-04-25T12:12:19;14.10;95.70
15341;DHT22;7770;52.158;5.372;2023-04-25T12:18:01;14.70;94.90
15341;DHT22;7770;52.158;5.372;2023-04-25T12:20:48;14.70;94.90
15341;DHT22;7770;52.158;5.372;2023-04-25T12:23:34;13.80;94.50
15341;DHT22;7770;52.158;5.372;2023-04-25T12:26:20;13.30;95.40
15341;DHT22;7770;52.158;5.372;2023-04-25T12:29:16;13.50;96.00
15341;DHT22;7770;52.158;5.372;2023-04-25T12:32:03;13.40;95.60
15341;DHT22;7770;52.158;5.372;2023-04-25T12:34:49;13.40;95.60
15341;DHT22;7770;52.158;5.372;2023-04-25T12:37:35;13.30;95.50
15341;DHT22;7770;52.158;5.372;2023-04-25T12:40:22;13.70;95.30
15341;DHT22;7770;52.158;5.372;2023-04-25T12:43:08;14.00;95.20
15341;DHT22;7770;52.158;5.372;2023-04-25T12:45:55;14.20;94.30
15341;DHT22;7770;52.158;5.372;2023-04-25T12:48:42;14.60;93.80
15341;DHT22;7770;52.158;5.372;2023-04-25T12:51:28;15.00;93.70
15341;DHT22;7770;52.158;5.372;2023-04-25T12:54:14;14.90;92.70
15341;DHT22;7770;52.158;5.372;2023-04-25T12:57:00;15.00;92.50
15341;DHT22;7770;52.158;5.372;2023-04-25T12:59:48;14.20;92.80
15341;DHT22;7770;52.158;5.372;2023-04-25T13:02:34;13.80;94.30
15341;DHT22;7770;52.158;5.372;2023-04-25T13:05:20;13.40;94.00
15341;DHT22;7770;52.158;5.372;2023-04-25T13:08:06;13.10;93.70
15341;DHT22;7770;52.158;5.372;2023-04-25T13:10:52;12.80;94.80
15341;DHT22;7770;52.158;5.372;2023-04-25T13:13:38;12.50;95.30
15341;DHT22;7770;52.158;5.372;2023-04-25T13:16:25;12.40;95.60
15341;DHT22;7770;52.158;5.372;2023-04-25T13:19:11;12.50;95.00
15341;DHT22;7770;52.158;5.372;2023-04-25T13:21:58;12.30;95.40
15341;DHT22;7770;52.158;5.372;2023-04-25T13:24:44;12.90;95.20
15341;DHT22;7770;52.158;5.372;2023-04-25T13:27:30;13.20;94.30
15341;DHT22;7770;52.158;5.372;2023-04-25T13:30:18;12.90;92.80
15341;DHT22;7770;52.158;5.372;2023-04-25T13:33:04;12.50;94.20
15341;DHT22;7770;52.158;5.372;2023-04-25T13:35:52;12.30;94.80
15341;DHT22;7770;52.158;5.372;2023-04-25T13:38:42;12.10;94.90
15341;DHT22;7770;52.158;5.372;2023-04-25T13:41:30;12.10;95.60
15341;DHT22;7770;52.158;5.372;2023-04-25T13:44:16;11.90;95.30
15341;DHT22;7770;52.158;5.372;2023-04-25T13:47:02;11.80;95.90
15341;DHT22;7770;52.158;5.372;2023-04-25T13:49:49;11.70;95.60
15341;DHT22;7770;52.158;5.372;2023-04-25T13:52:36;12.10;95.80
15341;DHT22;7770;52.158;5.372;2023-04-25T13:55:22;12.50;94.60
15341;DHT22;7770;52.158;5.372;2023-04-25T13:58:08;12.50;95.00
15341;DHT22;7770;52.158;5.372;2023-04-25T14:00:55;12.30;97.20
15341;DHT22;7770;52.158;5.372;2023-04-25T14:03:41;12.20;97.40
15341;DHT22;7770;52.158;5.372;2023-04-25T14:06:27;12.00;97.70
15341;DHT22;7770;52.158;5.372;2023-04-25T14:09:13;11.70;97.60
15341;DHT22;7770;52.158;5.372;2023-04-25T14:12:00;11.40;98.00
15341;DHT22;7770;52.158;5.372;2023-04-25T14:14:47;11.20;97.50
15341;DHT22;7770;52.158;5.372;2023-04-25T14:17:33;11.00;98.30
15341;DHT22;7770;52.158;5.372;2023-04-25T14:20:19;11.30;98.70
15341;DHT22;7770;52.158;5.372;2023-04-25T14:23:06;11.60;96.40
15341;DHT22;7770;52.158;5.372;2023-04-25T14:25:53;11.90;94.30
15341;DHT22;7770;52.158;5.372;2023-04-25T14:28:38;11.90;95.10
15341;DHT22;7770;52.158;5.372;2023-04-25T14:31:25;12.30;96.40
15341;DHT22;7770;52.158;5.372;2023-04-25T14:34:10;12.50;96.10
15341;DHT22;7770;52.158;5.372;2023-04-25T14:36:57;12.40;95.10
15341;DHT22;7770;52.158;5.372;2023-04-25T14:39:43;12.40;93.30
15341;DHT22;7770;52.158;5.372;2023-04-25T14:42:29;12.20;94.10
15341;DHT22;7770;52.158;5.372;2023-04-25T14:45:15;11.90;94.40
15341;DHT22;7770;52.158;5.372;2023-04-25T14:48:01;11.70;93.30
15341;DHT22;7770;52.158;5.372;2023-04-25T14:50:48;11.80;94.80
15341;DHT22;7770;52.158;5.372;2023-04-25T14:53:34;12.10;94.60
15341;DHT22;7770;52.158;5.372;2023-04-25T14:56:20;12.40;94.60
15341;DHT22;7770;52.158;5.372;2023-04-25T14:59:06;12.30;93.70
15341;DHT22;7770;52.158;5.372;2023-04-25T15:01:52;12.40;94.40
15341;DHT22;7770;52.158;5.372;2023-04-25T15:04:38;12.40;95.10
15341;DHT22;7770;52.158;5.372;2023-04-25T15:07:24;12.30;94.60
15341;DHT22;7770;52.158;5.372;2023-04-25T15:10:11;12.10;94.70
15341;DHT22;7770;52.158;5.372;2023-04-25T15:13:01;11.80;94.20
15341;DHT22;7770;52.158;5.372;2023-04-25T15:15:48;11.80;94.10
15341;DHT22;7770;52.158;5.372;2023-04-25T15:18:36;11.70;94.20
15341;DHT22;7770;52.158;5.372;2023-04-25T15:21:22;11.60;94.10
15341;DHT22;7770;52.158;5.372;2023-04-25T15:24:08;11.30;94.50
15341;DHT22;7770;52.158;5.372;2023-04-25T15:26:54;11.20;95.70
15341;DHT22;7770;52.158;5.372;2023-04-25T15:29:41;11.20;97.10
15341;DHT22;7770;52.158;5.372;2023-04-25T15:32:27;11.30;97.70
15341;DHT22;7770;52.158;5.372;2023-04-25T15:35:13;11.30;98.20
15341;DHT22;7770;52.158;5.372;2023-04-25T15:38:00;11.30;98.00
15341;DHT22;7770;52.158;5.372;2023-04-25T15:40:46;11.20;97.70
15341;DHT22;7770;52.158;5.372;2023-04-25T15:43:32;11.00;98.40
15341;DHT22;7770;52.158;5.372;2023-04-25T15:46:21;11.10;98.20
15341;DHT22;7770;52.158;5.372;2023-04-25T15:49:08;11.30;97.80
15341;DHT22;7770;52.158;5.372;2023-04-25T15:51:54;11.50;97.80
15341;DHT22;7770;52.158;5.372;2023-04-25T15:54:40;11.60;97.30
15341;DHT22;7770;52.158;5.372;2023-04-25T15:57:26;11.70;97.00
15341;DHT22;7770;52.158;5.372;2023-04-25T16:00:13;11.70;97.30
15341;DHT22;7770;52.158;5.372;2023-04-25T16:03:01;11.50;97.20
15341;DHT22;7770;52.158;5.372;2023-04-25T16:05:48;11.20;97.60
15341;DHT22;7770;52.158;5.372;2023-04-25T16:08:34;11.10;97.70
15341;DHT22;7770;52.158;5.372;2023-04-25T16:11:21;11.10;97.60
15341;DHT22;7770;52.158;5.372;2023-04-25T16:14:07;11.00;97.70
15341;DHT22;7770;52.158;5.372;2023-04-25T16:16:53;10.90;97.60
15341;DHT22;7770;52.158;5.372;2023-04-25T16:19:39;10.80;98.00
15341;DHT22;7770;52.158;5.372;2023-04-25T16:22:25;10.80;97.60
15341;DHT22;7770;52.158;5.372;2023-04-25T16:25:12;10.60;99.40
15341;DHT22;7770;52.158;5.372;2023-04-25T16:27:58;10.40;99.90
15341;DHT22;7770;52.158;5.372;2023-04-25T16:30:44;10.50;99.90
15341;DHT22;7770;52.158;5.372;2023-04-25T16:33:30;10.50;99.90
15341;DHT22;7770;52.158;5.372;2023-04-25T16:36:17;10.40;99.90
15341;DHT22;7770;52.158;5.372;2023-04-25T16:39:03;10.30;99.50
15341;DHT22;7770;52.158;5.372;2023-04-25T16:41:49;10.20;96.20
15341;DHT22;7770;52.158;5.372;2023-04-25T16:44:35;10.20;96.70
15341;DHT22;7770;52.158;5.372;2023-04-25T16:47:21;10.20;97.00
15341;DHT22;7770;52.158;5.372;2023-04-25T16:50:07;10.10;97.00
15341;DHT22;7770;52.158;5.372;2023-04-25T16:52:53;10.20;96.80
15341;DHT22;7770;52.158;5.372;2023-04-25T16:55:40;10.20;96.50
15341;DHT22;7770;52.158;5.372;2023-04-25T16:58:26;10.20;97.10
15341;DHT22;7770;52.158;5.372;2023-04-25T17:01:13;10.00;96.60
15341;DHT22;7770;52.158;5.372;2023-04-25T17:04:04;9.90;97.70
15341;DHT22;7770;52.158;5.372;2023-04-25T17:06:50;9.70;98.30
15341;DHT22;7770;52.158;5.372;2023-04-25T17:09:36;9.50;98.70
15341;DHT22;7770;52.158;5.372;2023-04-25T17:12:22;9.30;99.20
15341;DHT22;7770;52.158;5.372;2023-04-25T17:15:08;9.20;99.60
15341;DHT22;7770;52.158;5.372;2023-04-25T17:17:55;9.10;99.50
15341;DHT22;7770;52.158;5.372;2023-04-25T17:20:41;9.10;99.60
15341;DHT22;7770;52.158;5.372;2023-04-25T17:23:27;9.10;98.90
15341;DHT22;7770;52.158;5.372;2023-04-25T17:26:13;9.10;99.10
15341;DHT22;7770;52.158;5.372;2023-04-25T17:29:00;9.10;98.40
15341;DHT22;7770;52.158;5.372;2023-04-25T17:31:46;9.10;98.40
15341;DHT22;7770;52.158;5.372;2023-04-25T17:34:32;9.10;99.30
15341;DHT22;7770;52.158;5.372;2023-04-25T17:37:18;9.00;99.60
15341;DHT22;7770;52.158;5.372;2023-04-25T17:40:06;9.10;99.90
15341;DHT22;7770;52.158;5.372;2023-04-25T17:42:56;9.10;99.90
15341;DHT22;7770;52.158;5.372;2023-04-25T17:45:42;9.10;99.90
15341;DHT22;7770;52.158;5.372;2023-04-25T17:48:28;8.90;99.90
15341;DHT22;7770;52.158;5.372;2023-04-25T17:51:16;8.70;99.90
15341;DHT22;7770;52.158;5.372;2023-04-25T17:54:02;8.70;99.90
15341;DHT22;7770;52.158;5.372;2023-04-25T17:56:48;8.50;99.90
15341;DHT22;7770;52.158;5.372;2023-04-25T17:59:34;8.40;99.90
15341;DHT22;7770;52.158;5.372;2023-04-25T18:02:20;8.30;99.90
15341;DHT22;7770;52.158;5.372;2023-04-25T18:05:06;8.30;99.90
15341;DHT22;7770;52.158;5.372;2023-04-25T18:07:55;8.20;99.90